Time;durP1;ratioP1;P1;durP2;ratioP2;P2;SDS_P1;SDS_P2;PMS_P1;PMS_P2;Temp;Humidity;BMP_temperature;BMP_pressure;BME280_temperature;BME280_humidity;BME280_pressure;Samples;Min_cycle;Max_cycle;Signal;HPM_P1;HPM_P2
2022/06/02 00:01:34;;;;;;;;;1.25;1.25;;;;;16.69;38.30;101174.25;5014885;28;45479;-59
2022/06/02 00:04:24;;;;;;;;;2.25;2.00;;;;;16.65;38.45;101174.47;5018324;28;45537;-60
2022/06/02 00:07:07;;;;;;;;;2.25;1.50;;;;;16.60;38.78;101179.97;5075076;27;45434;-60
2022/06/02 00:09:59;;;;;;;;;2.00;2.00;;;;;16.55;39.09;101173.19;5110120;27;45380;-59
2022/06/02 00:12:31;;;;;;;;;2.00;2.00;;;;;16.52;39.16;101175.03;5113292;27;45231;-60
2022/06/02 00:15:23;;;;;;;;;2.00;1.25;;;;;16.50;38.86;101173.38;5101728;27;45259;-59
2022/06/02 00:18:00;;;;;;;;;3.00;2.00;;;;;16.47;39.07;101174.38;5115490;27;46199;-59
2022/06/02 00:20:44;;;;;;;;;3.50;2.00;;;;;16.44;38.89;101168.38;5097667;27;45481;-59
2022/06/02 00:23:21;;;;;;;;;2.75;2.75;;;;;16.41;39.43;101179.06;5106057;27;45473;-59
2022/06/02 00:26:02;;;;;;;;;3.00;3.00;;;;;16.40;39.55;101188.78;5098107;27;45618;-59
2022/06/02 00:28:30;;;;;;;;;3.00;3.00;;;;;16.39;39.97;101187.06;5098642;27;46222;-60
2022/06/02 00:31:12;;;;;;;;;2.50;2.50;;;;;16.38;39.94;101193.28;5118076;27;45749;-60
2022/06/02 00:34:05;;;;;;;;;2.00;2.00;;;;;16.38;39.75;101200.34;5097270;27;45500;-60
2022/06/02 00:36:36;;;;;;;;;3.00;3.00;;;;;16.38;39.75;101193.28;5098052;27;45386;-59
2022/06/02 00:39:03;;;;;;;;;2.50;2.00;;;;;16.39;40.13;101197.63;5089575;27;45484;-59
2022/06/02 00:41:40;;;;;;;;;5.00;3.50;;;;;16.41;39.80;101203.69;5109049;27;45862;-59
2022/06/02 00:44:25;;;;;;;;;4.50;4.00;;;;;16.41;40.07;101206.34;5089757;27;45377;-60
2022/06/02 00:46:55;;;;;;;;;3.25;2.75;;;;;16.42;40.23;101202.78;5113627;27;45522;-60
2022/06/02 00:49:58;;;;;;;;;1.00;1.00;;;;;16.41;39.88;101197.56;5104387;27;47195;-59
2022/06/02 00:52:30;;;;;;;;;3.00;3.00;;;;;16.36;39.96;101197.78;5097470;27;45818;-60
2022/06/02 00:58:08;;;;;;;;;3.75;2.50;;;;;16.35;40.09;101190.78;5108110;27;45682;-60
2022/06/02 01:00:52;;;;;;;;;3.00;2.25;;;;;16.34;40.42;101194.31;5113936;27;46692;-60
2022/06/02 01:03:23;;;;;;;;;2.00;2.00;;;;;16.31;40.18;101195.34;5100183;27;45290;-60
2022/06/02 01:06:23;;;;;;;;;2.75;2.75;;;;;16.29;40.61;101198.97;5108636;27;45365;-60
2022/06/02 01:09:16;;;;;;;;;2.25;2.25;;;;;16.25;40.61;101192.09;5088451;27;46905;-60
2022/06/02 01:11:41;;;;;;;;;3.00;2.00;;;;;16.26;40.40;101193.81;5099364;27;45259;-60
2022/06/02 01:14:29;;;;;;;;;3.00;3.00;;;;;16.24;40.45;101198.31;5112824;27;45438;-59
2022/06/02 01:17:04;;;;;;;;;3.00;3.00;;;;;16.21;40.66;101198.44;5106854;27;45452;-59
2022/06/02 01:19:32;;;;;;;;;3.75;3.25;;;;;16.19;40.59;101198.50;5112683;27;45504;-60
2022/06/02 01:22:18;;;;;;;;;2.00;2.00;;;;;16.19;40.56;101189.72;5109631;27;46465;-59
2022/06/02 01:24:51;;;;;;;;;5.25;3.00;;;;;16.15;40.95;101186.38;5117197;27;45275;-60
2022/06/02 01:28:02;;;;;;;;;7.75;6.00;;;;;16.13;40.82;101177.66;5117289;27;45503;-59
2022/06/02 01:30:52;;;;;;;;;4.00;2.75;;;;;16.10;40.92;101180.44;5084893;27;47549;-60
2022/06/02 01:33:38;;;;;;;;;4.75;3.75;;;;;16.06;40.84;101184.97;5108979;27;46348;-60
2022/06/02 01:36:07;;;;;;;;;3.00;3.00;;;;;16.04;41.19;101188.59;5106055;27;45926;-60
2022/06/02 01:38:45;;;;;;;;;5.00;4.00;;;;;16.01;41.26;101186.94;5114377;27;45323;-60
2022/06/02 01:41:34;;;;;;;;;3.50;3.00;;;;;15.99;41.21;101182.66;5089514;27;45829;-60
2022/06/02 01:44:05;;;;;;;;;4.50;4.50;;;;;15.97;41.56;101182.75;5088761;27;46576;-60
2022/06/02 01:46:36;;;;;;;;;6.00;4.00;;;;;15.95;41.59;101184.56;5112253;27;45835;-59
2022/06/02 01:49:27;;;;;;;;;5.00;3.00;;;;;15.92;41.48;101184.72;5109721;27;45237;-60
2022/06/02 01:52:18;;;;;;;;;4.00;3.00;;;;;15.93;41.47;101196.97;5104914;27;45554;-60
2022/06/02 01:55:10;;;;;;;;;4.00;3.75;;;;;15.91;41.69;101198.81;5113623;27;45356;-60
2022/06/02 01:57:41;;;;;;;;;6.00;3.00;;;;;15.89;41.75;101203.31;5101954;27;45548;-59
2022/06/02 02:00:08;;;;;;;;;4.75;4.00;;;;;15.87;41.76;101199.88;5114224;27;45481;-59
2022/06/02 02:02:44;;;;;;;;;3.50;3.50;;;;;15.86;41.77;101204.28;5110453;27;45374;-60
2022/06/02 02:05:36;;;;;;;;;3.50;3.50;;;;;15.87;42.07;101205.16;5113495;27;46199;-60
2022/06/02 02:08:20;;;;;;;;;4.00;3.25;;;;;15.86;41.68;101204.28;5119390;27;45429;-60
2022/06/02 02:11:12;;;;;;;;;6.50;4.00;;;;;15.87;42.01;101200.72;5108038;27;45310;-59
2022/06/02 02:13:41;;;;;;;;;4.25;4.00;;;;;15.88;41.97;101198.94;5112903;27;45670;-59
2022/06/02 02:16:18;;;;;;;;;5.00;4.00;;;;;15.86;41.96;101195.50;5096408;27;46441;-59
2022/06/02 02:19:13;;;;;;;;;5.25;4.00;;;;;15.83;42.10;101193.00;5111125;27;45762;-60
2022/06/02 02:22:15;;;;;;;;;5.25;5.00;;;;;15.79;42.20;101189.63;5046112;27;45538;-60
2022/06/02 02:25:02;;;;;;;;;5.25;3.75;;;;;15.75;42.65;101191.53;5111264;27;45300;-59
2022/06/02 02:28:04;;;;;;;;;6.75;5.00;;;;;15.69;42.03;101180.34;5117406;27;46334;-60
2022/06/02 02:30:40;;;;;;;;;5.00;5.00;;;;;15.69;42.36;101193.56;5111647;27;46111;-60
2022/06/02 02:33:59;;;;;;;;;4.00;4.00;;;;;15.66;42.33;101188.38;5103206;27;45365;-59
2022/06/02 02:36:46;;;;;;;;;7.75;5.25;;;;;15.62;42.41;101184.19;5034746;28;45325;-59
2022/06/02 02:39:18;;;;;;;;;6.25;4.25;;;;;15.59;42.41;101192.19;5108197;27;45574;-59
2022/06/02 02:41:43;;;;;;;;;5.25;5.25;;;;;15.54;42.66;101187.09;5105422;27;45300;-59
2022/06/02 02:44:34;;;;;;;;;4.33;4.00;;;;;15.49;43.14;101182.03;5112904;27;45358;-59
2022/06/02 02:47:22;;;;;;;;;4.75;4.75;;;;;15.45;43.09;101185.69;5115820;27;45555;-59
2022/06/02 02:49:55;;;;;;;;;7.00;6.00;;;;;15.42;42.84;101193.72;5108970;27;47813;-59
2022/06/02 02:52:59;;;;;;;;;4.00;2.50;;;;;15.39;43.33;101188.59;5082465;27;45900;-59
2022/06/02 02:55:33;;;;;;;;;3.00;3.00;;;;;15.32;43.03;101189.75;5080259;27;45344;-59
2022/06/02 02:58:32;;;;;;;;;6.00;4.50;;;;;15.34;43.28;101199.31;5094962;27;45467;-59
2022/06/02 03:01:04;;;;;;;;;6.25;4.00;;;;;15.32;43.45;101195.88;5113522;27;45268;-59
2022/06/02 03:03:56;;;;;;;;;7.50;6.25;;;;;15.30;43.83;101202.16;5094900;27;45429;-59
2022/06/02 03:06:24;;;;;;;;;6.00;6.00;;;;;15.24;43.78;101194.47;5105009;27;45259;-59
2022/06/02 03:09:03;;;;;;;;;7.75;5.50;;;;;15.23;43.09;101201.50;5110996;27;45451;-59
2022/06/02 03:11:43;;;;;;;;;4.75;4.50;;;;;15.21;43.35;101198.09;5108152;27;47249;-59
2022/06/02 03:14:22;;;;;;;;;6.25;4.75;;;;;15.16;43.35;101192.97;5097875;27;45935;-58
2022/06/02 03:16:58;;;;;;;;;6.00;6.00;;;;;15.13;43.37;101187.81;5096402;27;45418;-60
2022/06/02 03:20:08;;;;;;;;;5.00;5.00;;;;;15.08;43.79;101183.66;5094023;27;45302;-59
2022/06/02 03:22:48;;;;;;;;;7.25;4.75;;;;;15.08;43.85;101183.66;5083658;27;47222;-59
2022/06/02 03:25:24;;;;;;;;;7.50;5.50;;;;;15.03;44.18;101183.81;5111196;27;45811;-60
2022/06/02 03:28:03;;;;;;;;;9.00;6.00;;;;;15.02;44.13;101187.38;5115692;27;46019;-59
2022/06/02 03:30:50;;;;;;;;;7.25;6.50;;;;;15.00;43.96;101191.88;5112004;27;45285;-60
2022/06/02 03:33:15;;;;;;;;;6.50;6.25;;;;;14.98;43.53;101194.56;5104089;27;45536;-59
2022/06/02 03:35:59;;;;;;;;;6.00;5.00;;;;;14.96;44.18;101196.41;5109649;27;45441;-59
2022/06/02 03:38:34;;;;;;;;;5.75;5.25;;;;;14.95;44.13;101199.09;5109501;27;45147;-59
2022/06/02 03:41:24;;;;;;;;;8.00;7.00;;;;;14.94;44.32;101206.13;5111245;27;46108;-59
2022/06/02 03:44:11;;;;;;;;;7.75;5.50;;;;;14.93;44.66;101212.31;5118383;27;46936;-59
2022/06/02 03:46:42;;;;;;;;;7.50;6.00;;;;;14.94;44.58;101208.78;5093787;27;45373;-59
2022/06/02 03:49:32;;;;;;;;;7.00;7.00;;;;;14.95;44.53;101207.84;5094356;27;45447;-59
2022/06/02 03:52:23;;;;;;;;;5.75;5.50;;;;;14.93;44.15;101214.09;5115987;27;45221;-59
2022/06/02 03:55:14;;;;;;;;;7.25;7.00;;;;;14.93;44.05;101219.38;5092545;27;46129;-59
2022/06/02 03:57:58;;;;;;;;;6.00;6.00;;;;;14.92;44.79;101213.22;5095593;27;45514;-59
2022/06/02 04:00:36;;;;;;;;;7.25;6.25;;;;;14.91;44.09;101210.63;5112221;27;45404;-59
2022/06/02 04:03:05;;;;;;;;;6.25;6.00;;;;;14.89;43.94;101199.28;5103304;27;45355;-59
2022/06/02 04:05:42;;;;;;;;;6.50;5.25;;;;;14.86;44.04;101196.81;5092713;27;46035;-59
2022/06/02 04:08:13;;;;;;;;;7.25;5.25;;;;;14.84;44.70;101198.59;5106913;27;46000;-59
2022/06/02 04:10:51;;;;;;;;;6.00;6.00;;;;;14.81;44.23;101210.97;5088661;27;45427;-59
2022/06/02 04:13:37;;;;;;;;;8.00;6.00;;;;;14.79;44.81;101211.97;5116140;27;45338;-59
2022/06/02 04:16:27;;;;;;;;;6.00;6.00;;;;;14.77;44.82;101214.66;5105027;27;46387;-59
2022/06/02 04:19:01;;;;;;;;;7.25;7.25;;;;;14.75;44.90;101210.34;5105792;27;45865;-60
2022/06/02 04:21:58;;;;;;;;;7.75;7.75;;;;;14.73;44.78;101215.69;5110263;27;45351;-60
2022/06/02 04:24:54;;;;;;;;;8.00;6.25;;;;;14.74;44.38;101214.75;5096108;27;45437;-59
2022/06/02 04:27:30;;;;;;;;;8.00;7.75;;;;;14.71;45.19;101217.50;5107075;27;46257;-59
2022/06/02 04:30:10;;;;;;;;;7.00;7.00;;;;;14.72;45.24;101216.59;5097494;27;45910;-59
2022/06/02 04:32:43;;;;;;;;;12.00;11.00;;;;;14.75;44.92;101224.41;5107382;27;45440;-59
2022/06/02 04:35:47;;;;;;;;;9.00;7.00;;;;;14.78;44.22;101215.50;5098679;27;45459;-60
2022/06/02 04:38:23;;;;;;;;;7.75;7.00;;;;;14.76;45.06;101228.72;5102189;27;45407;-59
2022/06/02 04:40:58;;;;;;;;;11.25;7.50;;;;;14.79;44.92;101235.69;5088789;27;46746;-59
2022/06/02 04:43:32;;;;;;;;;7.50;7.25;;;;;14.84;45.14;101246.03;5107770;27;45292;-60
2022/06/02 04:46:19;;;;;;;;;8.25;7.00;;;;;14.89;44.80;101244.09;5121008;27;45537;-59
2022/06/02 04:49:04;;;;;;;;;9.00;8.50;;;;;14.93;44.45;101232.53;5110839;27;45236;-59
2022/06/02 04:52:03;;;;;;;;;8.50;7.25;;;;;14.98;44.40;101238.50;5108752;27;45435;-59
2022/06/02 04:54:38;;;;;;;;;8.00;6.00;;;;;15.03;44.88;101238.31;5094941;27;45380;-59
2022/06/02 04:57:22;;;;;;;;;9.00;8.00;;;;;15.08;44.83;101233.72;5097095;27;45834;-60
2022/06/02 05:00:23;;;;;;;;;8.00;7.00;;;;;15.12;44.60;101233.56;5109586;27;45912;-59
2022/06/02 05:03:10;;;;;;;;;8.75;8.50;;;;;15.18;44.27;101238.59;5115887;27;45373;-59
2022/06/02 05:05:40;;;;;;;;;9.25;9.25;;;;;15.22;44.36;101235.84;5118341;27;45638;-59
2022/06/02 05:08:14;;;;;;;;;9.00;7.00;;;;;15.26;44.24;101230.38;5110053;27;45249;-59
2022/06/02 05:10:51;;;;;;;;;7.50;7.00;;;;;15.28;44.44;101222.41;5097190;27;45386;-59
2022/06/02 05:13:28;;;;;;;;;9.75;8.00;;;;;15.30;44.52;101232.00;5113386;27;45863;-59
2022/06/02 05:16:04;;;;;;;;;13.50;9.00;;;;;15.32;44.24;101232.78;5098056;27;45581;-59
2022/06/02 05:19:11;;;;;;;;;8.25;8.00;;;;;15.37;44.21;101222.09;5107124;27;45520;-59
2022/06/02 05:22:14;;;;;;;;;10.00;10.00;;;;;15.40;44.25;101229.00;5046046;28;46192;-59
2022/06/02 05:24:57;;;;;;;;;8.25;8.00;;;;;15.41;44.49;101228.09;5110855;27;45296;-60
2022/06/02 05:28:04;;;;;;;;;12.00;8.25;;;;;15.43;44.08;101240.28;5115379;27;45300;-60
2022/06/02 05:30:48;;;;;;;;;10.50;7.00;;;;;15.47;44.20;101239.25;5097846;27;45181;-60
2022/06/02 05:33:39;;;;;;;;;7.25;7.00;;;;;15.51;43.72;101240.84;5096880;27;46250;-60
2022/06/02 05:36:29;;;;;;;;;12.50;11.25;;;;;15.56;43.88;101236.25;5102090;27;45443;-61
2022/06/02 05:39:03;;;;;;;;;8.50;8.00;;;;;15.61;44.03;101227.28;5104934;27;45491;-60
2022/06/02 05:41:50;;;;;;;;;11.00;8.75;;;;;15.65;43.85;101237.66;5116265;27;45483;-59
2022/06/02 05:44:41;;;;;;;;;11.75;10.50;;;;;15.70;44.25;101240.09;5107517;27;46030;-60
2022/06/02 05:47:22;;;;;;;;;10.75;9.00;;;;;15.75;43.94;101240.81;5101907;27;45770;-60
2022/06/02 05:49:50;;;;;;;;;8.75;8.25;;;;;15.81;44.12;101237.94;5108981;27;45554;-60
2022/06/02 05:52:23;;;;;;;;;8.00;5.75;;;;;15.84;43.65;101226.38;5113912;27;45221;-59
2022/06/02 05:55:00;;;;;;;;;8.50;8.00;;;;;15.86;43.27;101228.03;5109325;27;47165;-60
2022/06/02 05:58:02;;;;;;;;;9.00;8.00;;;;;15.88;44.08;101238.53;5113172;27;46288;-60
2022/06/02 06:01:01;;;;;;;;;10.50;9.50;;;;;15.90;43.57;101237.56;5103514;27;45251;-60
2022/06/02 06:03:35;;;;;;;;;10.75;9.25;;;;;15.90;43.27;101242.84;5105022;27;45528;-60
2022/06/02 06:06:04;;;;;;;;;12.75;10.00;;;;;15.91;43.80;101230.50;5094890;27;47330;-60
2022/06/02 06:08:35;;;;;;;;;8.75;8.75;;;;;15.95;43.51;101232.06;5106943;27;45710;-60
2022/06/02 06:11:00;;;;;;;;;11.25;9.50;;;;;15.99;43.79;101227.53;5108804;27;45282;-59
2022/06/02 06:13:51;;;;;;;;;11.00;9.67;;;;;16.02;43.35;101232.69;5109339;27;46724;-60
2022/06/02 06:16:17;;;;;;;;;10.00;9.75;;;;;16.03;43.39;101237.06;5090175;27;48762;-60
2022/06/02 06:18:54;;;;;;;;;11.67;11.00;;;;;16.05;43.73;101237.84;5110383;27;45438;-62
2022/06/02 06:21:49;;;;;;;;;13.75;10.50;;;;;16.05;43.27;101243.97;5111835;27;45518;-61
2022/06/02 06:24:37;;;;;;;;;12.25;9.75;;;;;16.06;43.39;101239.53;5086603;27;45320;-61
2022/06/02 06:27:28;;;;;;;;;9.75;9.75;;;;;16.11;43.33;101237.56;5089943;27;45468;-62
2022/06/02 06:30:09;;;;;;;;;13.25;11.00;;;;;16.16;43.36;101234.75;5067589;27;45414;-60
2022/06/02 06:32:39;;;;;;;;;11.25;11.25;;;;;16.16;43.18;101230.31;5100043;27;45594;-62
2022/06/02 06:35:24;;;;;;;;;10.00;8.00;;;;;16.18;43.67;101228.47;5089223;27;45509;-57
2022/06/02 06:38:16;;;;;;;;;13.75;10.50;;;;;16.21;43.54;101233.63;5096366;27;46168;-58
2022/06/02 06:41:15;;;;;;;;;14.00;11.25;;;;;16.25;43.37;101234.34;5098759;27;45500;-63
2022/06/02 06:44:02;;;;;;;;;12.25;9.50;;;;;16.29;43.15;101236.81;5092799;27;45446;-60
2022/06/02 06:46:41;;;;;;;;;10.25;9.00;;;;;16.38;43.65;101232.91;5095674;27;45466;-61
2022/06/02 06:49:32;;;;;;;;;11.75;11.25;;;;;16.44;43.24;101232.63;5102939;27;45575;-60
2022/06/02 06:52:40;;;;;;;;;12.50;11.00;;;;;16.53;43.03;101228.72;5115208;27;45267;-60
2022/06/02 06:55:36;;;;;;;;;11.00;10.25;;;;;16.58;42.86;101242.59;5086686;27;45777;-60
2022/06/02 06:58:17;;;;;;;;;11.25;11.00;;;;;16.65;43.14;101243.19;5101422;27;45630;-60
2022/06/02 07:01:38;;;;;;;;;13.25;11.00;;;;;16.73;43.29;101232.28;5089057;27;45664;-60
2022/06/02 07:04:20;;;;;;;;;12.75;10.50;;;;;16.81;42.64;101232.78;5025528;28;45497;-60
2022/06/02 07:07:07;;;;;;;;;11.25;11.00;;;;;16.88;42.67;101239.56;5096418;27;45256;-60
2022/06/02 07:09:41;;;;;;;;;12.00;10.00;;;;;16.97;42.65;101246.22;5107629;27;45370;-60
2022/06/02 07:15:29;;;;;;;;;13.50;11.00;;;;;17.15;42.40;101241.84;5104368;27;46087;-60
2022/06/02 07:18:03;;;;;;;;;9.50;9.50;;;;;17.23;42.58;101243.22;5101467;27;45481;-60
2022/06/02 07:20:56;;;;;;;;;14.75;10.00;;;;;17.33;42.13;101251.56;5113216;27;45519;-60
2022/06/02 07:23:38;;;;;;;;;12.75;10.75;;;;;17.42;42.42;101258.22;5112469;27;46355;-60
2022/06/02 07:26:36;;;;;;;;;69.75;51.75;;;;;17.52;41.96;101251.56;5105970;27;45741;-60
2022/06/02 07:29:23;;;;;;;;;13.50;10.00;;;;;17.63;41.75;101251.03;5068025;27;45623;-61
2022/06/02 07:31:54;;;;;;;;;11.00;10.00;;;;;17.70;41.90;101244.50;5093014;27;45440;-60
2022/06/02 07:34:51;;;;;;;;;13.75;9.50;;;;;17.79;41.78;101251.16;5108674;27;45306;-60
2022/06/02 07:37:37;;;;;;;;;10.75;8.75;;;;;17.88;41.86;101253.38;5115933;27;45534;-61
2022/06/02 07:40:28;;;;;;;;;10.00;10.00;;;;;17.99;41.16;101251.06;5079352;27;45697;-60
2022/06/02 07:42:53;;;;;;;;;12.50;9.00;;;;;18.08;41.14;101255.03;5096528;27;45646;-60
2022/06/02 07:45:36;;;;;;;;;8.00;8.00;;;;;18.19;41.20;101258.00;5120007;27;46338;-60
2022/06/02 07:48:22;;;;;;;;;12.25;9.00;;;;;18.31;40.76;101258.31;5120722;27;45338;-60
2022/06/02 07:51:06;;;;;;;;;8.00;4.75;;;;;18.47;40.62;101251.28;5118528;27;45527;-60
2022/06/02 07:53:57;;;;;;;;;8.50;8.50;;;;;18.62;40.46;101248.78;5105353;27;46183;-60
2022/06/02 07:56:25;;;;;;;;;6.25;6.25;;;;;18.69;40.50;101253.66;5115102;27;46173;-60
2022/06/02 07:59:11;;;;;;;;;8.50;7.75;;;;;18.77;40.01;101251.47;5122360;27;45339;-60
2022/06/02 08:01:46;;;;;;;;;10.50;10.50;;;;;18.85;40.10;101251.09;5088467;27;45472;-60
2022/06/02 08:04:23;;;;;;;;;9.75;7.00;;;;;18.88;39.53;101247.44;5121625;27;45518;-60
2022/06/02 08:07:01;;;;;;;;;6.50;6.00;;;;;18.93;39.71;101248.06;5086254;27;45951;-60
2022/06/02 08:09:58;;;;;;;;;10.00;7.75;;;;;19.05;39.70;101238.53;5086860;27;45772;-60
2022/06/02 08:12:56;;;;;;;;;6.50;6.50;;;;;19.16;39.60;101236.19;5103669;27;45314;-60
2022/06/02 08:15:40;;;;;;;;;9.75;6.00;;;;;19.29;39.56;101234.53;5061383;27;45367;-60
2022/06/02 08:18:22;;;;;;;;;7.75;7.00;;;;;19.47;39.11;101230.00;5116417;27;47119;-60
2022/06/02 08:20:53;;;;;;;;;7.25;5.00;;;;;19.61;38.47;101228.38;5116803;27;45375;-60
2022/06/02 08:23:24;;;;;;;;;9.00;7.25;;;;;19.73;38.13;101231.22;5114817;27;45412;-60
2022/06/02 08:26:18;;;;;;;;;5.25;5.25;;;;;19.86;38.22;101233.16;5118189;27;45489;-59
2022/06/02 08:29:23;;;;;;;;;4.75;4.75;;;;;19.99;38.04;101227.97;5106491;27;47295;-60
2022/06/02 08:32:16;;;;;;;;;6.25;5.00;;;;;20.13;37.68;101225.34;5110206;27;45752;-61
2022/06/02 08:35:10;;;;;;;;;8.00;5.50;;;;;20.28;37.41;101227.09;5090769;27;45208;-60
2022/06/02 08:37:53;;;;;;;;;7.25;7.25;;;;;20.39;37.31;101217.63;5096740;27;45358;-60
2022/06/02 08:40:44;;;;;;;;;5.25;5.25;;;;;20.49;36.71;101211.66;5098562;27;46134;-59
2022/06/02 08:43:24;;;;;;;;;8.00;5.00;;;;;20.61;36.63;101217.16;5111550;27;45467;-60
2022/06/02 08:45:58;;;;;;;;;5.50;4.00;;;;;20.69;36.29;101206.94;5097789;27;45398;-60
2022/06/02 08:48:42;;;;;;;;;7.00;5.25;;;;;20.79;36.59;101207.25;5119432;27;45493;-60
2022/06/02 08:51:47;;;;;;;;;7.25;5.25;;;;;20.88;36.30;101209.31;5111452;27;47226;-60
2022/06/02 08:54:39;;;;;;;;;8.25;5.25;;;;;20.97;36.42;101197.25;5100119;27;45361;-62
2022/06/02 08:57:26;;;;;;;;;8.75;5.75;;;;;21.03;36.19;101199.50;5113831;27;45205;-60
2022/06/02 09:00:20;;;;;;;;;4.75;4.25;;;;;21.09;35.97;101196.47;5114894;27;45276;-60
2022/06/02 09:03:07;;;;;;;;;5.00;5.00;;;;;21.15;35.82;101198.72;5120390;27;46164;-60
2022/06/02 09:05:32;;;;;;;;;4.75;4.25;;;;;21.25;35.59;101191.00;5118782;27;45756;-60
2022/06/02 09:08:39;;;;;;;;;7.00;5.00;;;;;21.34;35.30;101187.75;5122442;27;45394;-60
2022/06/02 09:11:26;;;;;;;;;7.00;7.00;;;;;21.47;35.21;101200.28;5093082;27;45355;-60
2022/06/02 09:14:04;;;;;;;;;7.75;5.00;;;;;21.51;35.27;101197.31;5102060;27;45349;-60
2022/06/02 09:17:02;;;;;;;;;6.25;5.75;;;;;21.55;34.91;101196.19;5099072;27;45662;-60
2022/06/02 09:19:53;;;;;;;;;5.00;5.00;;;;;21.53;34.68;101194.53;5115612;27;45309;-60
2022/06/02 09:22:34;;;;;;;;;4.75;4.00;;;;;21.56;34.85;101195.19;5105730;27;45639;-61
2022/06/02 09:25:12;;;;;;;;;7.25;6.50;;;;;21.70;34.45;101186.28;5097096;27;46952;-60
2022/06/02 09:27:53;;;;;;;;;4.00;4.00;;;;;21.85;34.55;101187.09;5118407;27;45262;-60
2022/06/02 09:30:40;;;;;;;;;5.50;4.75;;;;;22.05;33.97;101193.72;5117738;27;45416;-60
2022/06/02 09:33:33;;;;;;;;;6.75;4.50;;;;;22.24;33.84;101198.66;5098873;27;45506;-60
2022/06/02 09:36:26;;;;;;;;;3.25;3.25;;;;;22.45;33.65;101198.16;5115333;27;45431;-60
2022/06/02 09:39:10;;;;;;;;;3.50;3.50;;;;;22.72;33.75;101195.38;5113340;27;45903;-60
2022/06/02 09:41:59;;;;;;;;;5.00;3.50;;;;;23.25;32.65;101201.34;5114527;27;45656;-60
2022/06/02 09:45:02;;;;;;;;;5.50;4.00;;;;;24.19;32.19;101197.03;5116626;27;45353;-60
2022/06/02 09:47:42;;;;;;;;;4.00;4.00;;;;;25.09;32.20;101184.63;5111808;27;46048;-60
2022/06/02 09:50:23;;;;;;;;;6.50;4.25;;;;;25.95;29.96;101180.22;5120486;27;45275;-60
2022/06/02 09:52:51;;;;;;;;;3.00;3.00;;;;;27.01;28.98;101189.81;5086646;27;45366;-60
2022/06/02 09:55:37;;;;;;;;;5.50;4.00;;;;;28.46;27.65;101195.31;5120994;27;45398;-60
2022/06/02 09:58:26;;;;;;;;;4.50;2.75;;;;;29.96;27.10;101196.81;5120821;27;46479;-60
2022/06/02 10:01:22;;;;;;;;;8.25;6.00;;;;;31.54;25.44;101206.38;5096341;27;45383;-61
2022/06/02 10:04:12;;;;;;;;;11.00;9.00;;;;;32.95;24.10;101199.69;5116894;27;45465;-60
2022/06/02 10:07:11;;;;;;;;;4.00;2.75;;;;;34.18;23.32;101198.81;5114997;27;45492;-61
2022/06/02 10:09:55;;;;;;;;;3.00;3.00;;;;;35.23;21.78;101200.47;5092451;27;47106;-61
2022/06/02 10:15:26;;;;;;;;;3.25;3.25;;;;;37.20;18.97;101180.44;5113663;27;45291;-61
2022/06/02 10:17:57;;;;;;;;;4.50;1.75;;;;;38.02;19.16;101180.28;5101122;27;45943;-61
2022/06/02 10:20:44;;;;;;;;;1.75;1.75;;;;;38.57;18.67;101177.22;5115192;27;46016;-61
2022/06/02 10:23:40;;;;;;;;;3.50;2.00;;;;;38.90;18.89;101179.81;5118513;27;45621;-61
2022/06/02 10:26:27;;;;;;;;;4.75;3.50;;;;;39.19;18.02;101176.69;5119296;27;45224;-61
2022/06/02 10:29:12;;;;;;;;;2.00;2.00;;;;;39.42;18.03;101176.16;5118234;27;45807;-61
2022/06/02 10:31:59;;;;;;;;;3.00;2.25;;;;;39.61;17.38;101174.31;5062290;27;46211;-59
2022/06/02 10:34:56;;;;;;;;;2.00;2.00;;;;;39.71;16.33;101163.69;5114833;27;45260;-61
2022/06/02 10:37:47;;;;;;;;;1.00;1.00;;;;;39.83;16.97;101161.06;5106173;27;45239;-62
2022/06/02 10:40:39;;;;;;;;;3.25;3.00;;;;;39.98;16.05;101166.19;5107260;27;45401;-61
2022/06/02 10:43:17;;;;;;;;;3.50;3.00;;;;;40.55;16.59;101166.00;5075850;27;45308;-61
2022/06/02 10:46:06;;;;;;;;;2.00;2.00;;;;;40.94;15.45;101158.31;5086758;27;45446;-59
2022/06/02 10:48:55;;;;;;;;;2.00;2.00;;;;;41.18;15.32;101164.72;5105253;27;45317;-60
2022/06/02 10:51:51;;;;;;;;;10.25;6.25;;;;;41.47;15.07;101163.03;5101328;27;45596;-60
2022/06/02 10:54:35;;;;;;;;;6.50;5.00;;;;;41.86;15.34;101159.81;5099295;27;46216;-60
2022/06/02 10:57:25;;;;;;;;;4.50;3.00;;;;;42.00;14.19;101157.66;5105311;27;45600;-60
2022/06/02 11:00:11;;;;;;;;;1.25;1.25;;;;;41.95;14.20;101158.41;5104590;27;45330;-60
2022/06/02 11:02:58;;;;;;;;;2.50;2.50;;;;;41.98;13.92;101155.16;5108142;27;45190;-60
2022/06/02 11:05:50;;;;;;;;;1.75;1.75;;;;;42.13;13.31;101148.34;5104675;27;46351;-59
2022/06/02 11:08:40;;;;;;;;;1.75;0.00;;;;;41.81;13.48;101143.19;5067716;27;45470;-60
2022/06/02 11:11:25;;;;;;;;;1.50;1.00;;;;;40.84;13.23;101138.84;5100449;27;45390;-59
2022/06/02 11:14:10;;;;;;;;;1.00;1.00;;;;;40.09;14.26;101135.31;5108581;27;45733;-60
2022/06/02 11:16:39;;;;;;;;;5.00;3.00;;;;;39.77;12.66;101131.81;5086981;27;46269;-59
2022/06/02 11:19:58;;;;;;;;;3.00;3.00;;;;;39.06;14.25;101142.03;5111501;27;45334;-59
2022/06/02 11:22:23;;;;;;;;;4.00;3.75;;;;;38.46;14.45;101134.09;5038113;28;45381;-60
2022/06/02 11:25:27;;;;;;;;;5.75;4.00;;;;;37.89;15.32;101126.47;5107530;27;45528;-60
2022/06/02 11:28:04;;;;;;;;;2.75;2.75;;;;;37.14;15.20;101123.09;5098185;27;46360;-60
2022/06/02 11:30:44;;;;;;;;;3.00;2.00;;;;;37.05;13.55;101125.16;5111151;27;45587;-61
2022/06/02 11:33:42;;;;;;;;;4.00;4.00;;;;;37.39;14.38;101124.16;5113222;27;45378;-60
2022/06/02 11:36:07;;;;;;;;;6.75;4.25;;;;;37.94;14.84;101117.63;5089788;27;45190;-61
2022/06/02 11:39:03;;;;;;;;;2.00;2.00;;;;;38.44;14.86;101115.19;5109943;27;46309;-60
2022/06/02 11:41:41;;;;;;;;;2.50;2.00;;;;;38.58;14.00;101110.50;5123829;27;45595;-61
2022/06/02 11:44:09;;;;;;;;;5.25;3.50;;;;;38.40;13.66;101105.75;5107516;27;45469;-60
2022/06/02 11:46:46;;;;;;;;;2.00;2.00;;;;;38.33;14.81;101105.75;5120523;27;45320;-61
2022/06/02 11:49:36;;;;;;;;;2.00;1.50;;;;;38.59;13.92;101106.75;5123275;27;45372;-60
2022/06/02 11:52:34;;;;;;;;;3.00;2.00;;;;;39.09;14.17;101101.38;5107266;27;45382;-61
2022/06/02 11:55:21;;;;;;;;;6.25;3.00;;;;;39.49;14.08;101095.63;5116103;27;45454;-60
2022/06/02 11:58:20;;;;;;;;;2.25;2.25;;;;;39.89;14.00;101099.00;5117404;27;45338;-61
2022/06/02 12:01:13;;;;;;;;;3.00;2.50;;;;;39.69;13.74;101091.84;5119597;27;45241;-60
2022/06/02 12:04:02;;;;;;;;;1.25;1.25;;;;;38.87;14.34;101087.22;5104189;27;46470;-60
2022/06/02 12:06:54;;;;;;;;;2.00;2.00;;;;;38.44;14.04;101090.56;5105502;27;45582;-60
2022/06/02 12:09:51;;;;;;;;;4.00;2.75;;;;;37.91;14.67;101097.06;5106443;27;45373;-60
2022/06/02 12:12:45;;;;;;;;;1.00;1.00;;;;;37.55;14.72;101083.84;5098860;27;45366;-59
2022/06/02 12:15:39;;;;;;;;;3.00;2.00;;;;;37.24;14.45;101071.69;5116758;27;45662;-59
2022/06/02 12:18:20;;;;;;;;;2.00;2.00;;;;;37.05;14.70;101076.06;5117777;27;45358;-59
2022/06/02 12:21:18;;;;;;;;;1.75;1.75;;;;;36.54;15.19;101066.47;5104919;27;45354;-59
2022/06/02 12:23:46;;;;;;;;;2.00;1.00;;;;;35.96;14.83;101066.00;5067849;27;45333;-59
2022/06/02 12:26:40;;;;;;;;;1.00;1.00;;;;;35.51;14.91;101069.03;5115309;27;45338;-59
2022/06/02 12:29:17;;;;;;;;;3.00;1.50;;;;;35.34;14.95;101072.06;5115326;27;45319;-60
2022/06/02 12:31:59;;;;;;;;;3.00;3.00;;;;;35.28;15.33;101055.66;5100325;27;45376;-59
2022/06/02 12:34:47;;;;;;;;;3.75;2.00;;;;;35.30;15.53;101059.03;5107772;27;45285;-59
2022/06/02 12:37:25;;;;;;;;;2.00;1.75;;;;;35.08;15.76;101052.72;5098300;27;45791;-59
2022/06/02 12:39:54;;;;;;;;;3.75;2.00;;;;;34.65;16.01;101049.97;5120355;27;45411;-60
2022/06/02 12:42:44;;;;;;;;;3.00;2.00;;;;;34.27;16.41;101033.88;5118886;27;45504;-60
2022/06/02 12:45:15;;;;;;;;;1.25;1.25;;;;;33.97;16.58;101036.59;5115954;27;45578;-59
2022/06/02 12:48:02;;;;;;;;;4.00;3.50;;;;;33.80;16.41;101041.38;5117894;27;45501;-60
2022/06/02 12:50:27;;;;;;;;;1.75;1.25;;;;;33.84;16.46;101032.66;5122711;27;45445;-59